Terminal Aerodrome Forecast
Issued by NWS

Current Version | Previous Version | Text Only | Print | Product List | Glossary On
Versions: 1 2 3 4 5 6 7 8 9 10 11 12 13 14 15 16 17 18 19 20 21 22 23 24 25 26 27 28 29 30 31 32 33
000
FTUS45 KGJT 071325 AAA
TAFTEX
TAF AMD
KTEX 071325Z 0713/0812 00000KT P6SM VCTS SCT070 SCT080CB OVC100
     FM071600 20005KT P6SM -SHRA VCTS SCT050CB OVC080
      TEMPO 0718/0722 VRB10G20KT 4SM TSRA SCT030 OVC050CB
     FM072200 17005KT P6SM -SHRA VCTS SCT030 OVC050CB
     FM080400 12003KT P6SM VCSH SCT050 OVC080=

USA.gov is the U.S. government's official web portal to all federal, state and local government web resources and services.